Marianna, FL

5:53 PM CDT on August 28, 2016 (GMT -0500)
Marianna Municipal | | Change Station

Elev 112 ft 30.84 °N, 85.18 °W | Updated 1 hour ago

Partly Cloudy
Partly Cloudy
93 °F
Feels Like 100 °F
N
9
Wind Variable Wind from ENE

Today
High -- | Low -- °F
--% Chance of Precip.
Yesterday
High -- | Low -- °F
Precip. -- in
Pressure 29.94 in
Visibility 10.0 miles
Clouds Few 9000 ft
Heat Index 100 °F
Dew Point 71 °F
Humidity 49%
Rainfall 0.00 in
Snow Depth Not available.
6:15 AM 7:08 PM
Waning Crescent, 13% visible
METAR KMAI 282153Z AUTO 07008KT 10SM FEW090 34/22 A2994 RMK AO2 SLP137 T03390217
Pressure 29.94 in
Visibility 10.0 miles
Clouds Few 9000 ft
Heat Index 100 °F
Dew Point 71 °F
Humidity 49%
Rainfall 0.00 in
Snow Depth Not available.
6:15 AM 7:08 PM
Waning Crescent, 13% visible
METAR KMAI 282153Z AUTO 07008KT 10SM FEW090 34/22 A2994 RMK AO2 SLP137 T03390217

10-Day Weather Forecast

Almanac

Astronomy

Aug. 28, 2016 Rise Set
Actual Time
Civil Twilight
Nautical Twilight
Astronomical Twilight
Moon
Length of Visible Light
Length of Day
Tomorrow will be .
, % of the Moon is Illuminated

Today's Extremes

State Highs State Lows

Community

WunderPhotos

Upload Photos

1,935,705 photos uploaded!

WunderBlog® & News

Nearby

Air Quality

  Air Quality AQ Index Pollutant
Not available.

Snow Depth

Station Depth Elevation

Earthquake Activity

City Distance Mag. Time & Date
Minimum magnitude displayed is 2.5.

Coastal Water Temperatures

Place Temperature

Stations

Nearby Weather Stations

Station Location Temp. Windchill Dew Point Humidity Wind Precip. Elev Updated Type
                   

Watches & Warnings

There are currently no watches in effect.